Gardena, North Dakota
Current Conditions -  °F | °C
As of 7:15 PM on Sunday 23 Nov 2014 (Local Time) from KRUG Reporting Station
Light Snow Light Snow  
Wind Chill: -4°   Ceiling: 2200
Heat Index: 14°   Visibility: 7mi
Dew Point:   Wind: 21mph
Humidity: 79%   Direction: 330°NNW
Pressure: 29.66"   Gusts: 26mph
Location:  48.6836°N, 100.4843°W
Report Text: KRUG 240115Z AUTO 33018G23KT 7SM -SN OVC022 M10/M13 A2966 RMK AO2
Loading
Personal Weather Stations






























Interactive Weather Map New forecast layout! Learn more

10-Day Weather Forecast

Advertisements
Track Severe Weather on mobile